sensor_id;sensor_type;location;lat;lon;timestamp;noise_LAeq;noise_LA_min;noise_LA_max;noise_LA01;noise_LA95
66747;Laerm;53658;50.742;10.864;2024-02-16T00:01:35;41.11;39.46;42.41;;
66747;Laerm;53658;50.742;10.864;2024-02-16T00:04:01;41.10;39.46;42.53;;
66747;Laerm;53658;50.742;10.864;2024-02-16T00:06:27;41.07;39.34;42.47;;
66747;Laerm;53658;50.742;10.864;2024-02-16T00:08:53;41.10;38.81;42.59;;
66747;Laerm;53658;50.742;10.864;2024-02-16T00:11:19;41.34;39.46;48.18;;
66747;Laerm;53658;50.742;10.864;2024-02-16T00:13:45;41.12;39.34;43.89;;
66747;Laerm;53658;50.742;10.864;2024-02-16T00:16:11;41.14;39.08;44.31;;
66747;Laerm;53658;50.742;10.864;2024-02-16T00:18:37;41.15;39.46;43.58;;
66747;Laerm;53658;50.742;10.864;2024-02-16T00:21:03;41.15;39.34;43.49;;
66747;Laerm;53658;50.742;10.864;2024-02-16T00:23:29;41.72;39.34;51.81;;
66747;Laerm;53658;50.742;10.864;2024-02-16T00:25:55;41.74;39.21;52.12;;
66747;Laerm;53658;50.742;10.864;2024-02-16T00:28:20;41.10;39.34;44.73;;
66747;Laerm;53658;50.742;10.864;2024-02-16T00:30:46;41.20;39.34;47.83;;
66747;Laerm;53658;50.742;10.864;2024-02-16T00:33:12;41.53;39.46;51.15;;
66747;Laerm;53658;50.742;10.864;2024-02-16T00:35:38;41.23;39.08;51.34;;
66747;Laerm;53658;50.742;10.864;2024-02-16T00:38:04;41.57;39.08;52.05;;
66747;Laerm;53658;50.742;10.864;2024-02-16T00:40:30;41.41;38.95;50.00;;
66747;Laerm;53658;50.742;10.864;2024-02-16T00:42:55;41.07;39.34;44.27;;
66747;Laerm;53658;50.742;10.864;2024-02-16T00:45:21;41.07;39.34;42.53;;
66747;Laerm;53658;50.742;10.864;2024-02-16T00:47:47;41.06;38.81;44.11;;
66747;Laerm;53658;50.742;10.864;2024-02-16T00:50:14;41.08;38.67;45.11;;
66747;Laerm;53658;50.742;10.864;2024-02-16T00:52:41;41.09;39.21;45.20;;
66747;Laerm;53658;50.742;10.864;2024-02-16T00:55:08;41.09;39.34;43.00;;
66747;Laerm;53658;50.742;10.864;2024-02-16T00:57:33;41.07;39.34;46.25;;
66747;Laerm;53658;50.742;10.864;2024-02-16T01:00:00;41.09;39.08;42.71;;
66747;Laerm;53658;50.742;10.864;2024-02-16T01:02:26;41.11;39.34;44.03;;
66747;Laerm;53658;50.742;10.864;2024-02-16T01:04:51;41.13;39.34;45.20;;
66747;Laerm;53658;50.742;10.864;2024-02-16T01:07:18;41.03;38.95;44.27;;
66747;Laerm;53658;50.742;10.864;2024-02-16T01:09:44;41.06;38.95;44.69;;
66747;Laerm;53658;50.742;10.864;2024-02-16T01:12:10;41.20;39.21;52.90;;
66747;Laerm;53658;50.742;10.864;2024-02-16T01:14:35;40.99;38.87;48.02;;
66747;Laerm;53658;50.742;10.864;2024-02-16T01:17:01;41.00;39.08;42.47;;
66747;Laerm;53658;50.742;10.864;2024-02-16T01:19:27;41.03;38.95;46.71;;
66747;Laerm;53658;50.742;10.864;2024-02-16T01:21:53;41.05;38.81;42.59;;
66747;Laerm;53658;50.742;10.864;2024-02-16T01:24:23;41.06;39.34;42.65;;
66747;Laerm;53658;50.742;10.864;2024-02-16T01:26:49;41.06;39.58;42.47;;
66747;Laerm;53658;50.742;10.864;2024-02-16T01:29:15;41.00;39.08;42.41;;
66747;Laerm;53658;50.742;10.864;2024-02-16T01:31:41;41.00;39.08;43.44;;
66747;Laerm;53658;50.742;10.864;2024-02-16T01:34:07;41.22;39.34;47.78;;
66747;Laerm;53658;50.742;10.864;2024-02-16T01:36:32;41.03;39.34;42.41;;
66747;Laerm;53658;50.742;10.864;2024-02-16T01:38:58;40.94;39.08;42.22;;
66747;Laerm;53658;50.742;10.864;2024-02-16T01:41:24;40.98;39.08;43.19;;
66747;Laerm;53658;50.742;10.864;2024-02-16T01:43:53;41.10;39.46;49.32;;
66747;Laerm;53658;50.742;10.864;2024-02-16T01:46:20;41.10;39.58;44.80;;
66747;Laerm;53658;50.742;10.864;2024-02-16T01:48:48;41.19;39.21;44.62;;
66747;Laerm;53658;50.742;10.864;2024-02-16T01:51:16;41.17;39.21;45.33;;
66747;Laerm;53658;50.742;10.864;2024-02-16T01:53:42;41.09;38.95;42.47;;
66747;Laerm;53658;50.742;10.864;2024-02-16T01:56:08;41.09;39.46;42.41;;
66747;Laerm;53658;50.742;10.864;2024-02-16T01:58:34;41.07;39.34;42.65;;
66747;Laerm;53658;50.742;10.864;2024-02-16T02:01:00;41.09;39.21;42.53;;
66747;Laerm;53658;50.742;10.864;2024-02-16T02:03:26;41.09;39.34;42.47;;
66747;Laerm;53658;50.742;10.864;2024-02-16T02:05:52;41.22;39.08;48.87;;
66747;Laerm;53658;50.742;10.864;2024-02-16T02:08:20;41.09;39.34;46.20;;
66747;Laerm;53658;50.742;10.864;2024-02-16T02:10:45;41.07;38.95;44.15;;
66747;Laerm;53658;50.742;10.864;2024-02-16T02:13:11;41.09;39.21;42.59;;
66747;Laerm;53658;50.742;10.864;2024-02-16T02:15:37;41.06;38.95;42.41;;
66747;Laerm;53658;50.742;10.864;2024-02-16T02:18:03;41.07;39.21;42.65;;
66747;Laerm;53658;50.742;10.864;2024-02-16T02:20:29;41.07;39.21;42.65;;
66747;Laerm;53658;50.742;10.864;2024-02-16T02:22:54;41.07;39.21;42.41;;
66747;Laerm;53658;50.742;10.864;2024-02-16T02:25:20;41.05;39.21;42.41;;
66747;Laerm;53658;50.742;10.864;2024-02-16T02:27:47;41.01;39.21;42.47;;
66747;Laerm;53658;50.742;10.864;2024-02-16T02:30:13;41.02;39.21;42.41;;
66747;Laerm;53658;50.742;10.864;2024-02-16T02:32:39;40.98;39.21;42.65;;
66747;Laerm;53658;50.742;10.864;2024-02-16T02:35:05;40.98;39.08;42.35;;
66747;Laerm;53658;50.742;10.864;2024-02-16T02:37:31;40.97;39.21;42.35;;
66747;Laerm;53658;50.742;10.864;2024-02-16T02:39:57;41.03;39.34;42.41;;
66747;Laerm;53658;50.742;10.864;2024-02-16T02:42:23;41.09;39.35;42.47;;
66747;Laerm;53658;50.742;10.864;2024-02-16T02:44:48;41.04;39.46;42.35;;
66747;Laerm;53658;50.742;10.864;2024-02-16T02:47:17;40.89;39.34;42.59;;
66747;Laerm;53658;50.742;10.864;2024-02-16T02:49:44;40.91;38.81;42.88;;
66747;Laerm;53658;50.742;10.864;2024-02-16T02:52:10;40.95;39.34;42.22;;
66747;Laerm;53658;50.742;10.864;2024-02-16T02:54:36;40.87;39.21;42.47;;
66747;Laerm;53658;50.742;10.864;2024-02-16T02:57:02;40.70;38.95;42.16;;
66747;Laerm;53658;50.742;10.864;2024-02-16T02:59:28;40.73;38.81;42.29;;
66747;Laerm;53658;50.742;10.864;2024-02-16T03:01:54;40.95;39.34;42.53;;
66747;Laerm;53658;50.742;10.864;2024-02-16T03:04:20;40.98;38.95;42.41;;
66747;Laerm;53658;50.742;10.864;2024-02-16T03:06:46;40.81;38.95;42.09;;
66747;Laerm;53658;50.742;10.864;2024-02-16T03:09:12;41.44;39.34;51.70;;
66747;Laerm;53658;50.742;10.864;2024-02-16T03:11:38;41.08;39.21;42.41;;
66747;Laerm;53658;50.742;10.864;2024-02-16T03:14:04;41.05;39.08;42.65;;
66747;Laerm;53658;50.742;10.864;2024-02-16T03:16:31;40.91;39.21;42.35;;
66747;Laerm;53658;50.742;10.864;2024-02-16T03:18:57;40.76;39.21;42.09;;
66747;Laerm;53658;50.742;10.864;2024-02-16T03:21:23;40.66;38.95;42.09;;
66747;Laerm;53658;50.742;10.864;2024-02-16T03:23:49;40.48;38.81;42.03;;
66747;Laerm;53658;50.742;10.864;2024-02-16T03:26:16;40.71;38.95;42.16;;
66747;Laerm;53658;50.742;10.864;2024-02-16T03:28:49;41.11;39.21;43.68;;
66747;Laerm;53658;50.742;10.864;2024-02-16T03:31:19;41.14;39.21;44.27;;
66747;Laerm;53658;50.742;10.864;2024-02-16T03:33:46;41.09;39.08;42.59;;
66747;Laerm;53658;50.742;10.864;2024-02-16T03:36:13;41.08;38.81;42.65;;
66747;Laerm;53658;50.742;10.864;2024-02-16T03:38:47;41.08;39.46;42.47;;
66747;Laerm;53658;50.742;10.864;2024-02-16T03:41:19;41.06;39.46;42.53;;
66747;Laerm;53658;50.742;10.864;2024-02-16T03:43:46;40.97;39.08;42.29;;
66747;Laerm;53658;50.742;10.864;2024-02-16T03:46:11;40.91;38.95;42.22;;
66747;Laerm;53658;50.742;10.864;2024-02-16T03:48:38;40.85;39.21;42.22;;
66747;Laerm;53658;50.742;10.864;2024-02-16T03:51:04;40.74;38.95;42.09;;
66747;Laerm;53658;50.742;10.864;2024-02-16T03:53:30;40.74;38.95;42.09;;
66747;Laerm;53658;50.742;10.864;2024-02-16T03:55:56;40.61;38.67;42.16;;
66747;Laerm;53658;50.742;10.864;2024-02-16T03:58:23;40.47;38.81;41.88;;
66747;Laerm;53658;50.742;10.864;2024-02-16T04:00:49;40.36;38.67;41.82;;
66747;Laerm;53658;50.742;10.864;2024-02-16T04:03:16;40.40;38.52;42.03;;
66747;Laerm;53658;50.742;10.864;2024-02-16T04:05:42;40.49;38.52;41.82;;
66747;Laerm;53658;50.742;10.864;2024-02-16T04:08:08;40.52;38.37;41.89;;
66747;Laerm;53658;50.742;10.864;2024-02-16T04:10:34;40.37;38.52;42.03;;
66747;Laerm;53658;50.742;10.864;2024-02-16T04:13:02;40.31;38.37;41.89;;
66747;Laerm;53658;50.742;10.864;2024-02-16T04:15:28;40.28;38.37;41.82;;
66747;Laerm;53658;50.742;10.864;2024-02-16T04:17:54;40.28;38.37;41.68;;
66747;Laerm;53658;50.742;10.864;2024-02-16T04:20:20;40.27;38.52;41.89;;
66747;Laerm;53658;50.742;10.864;2024-02-16T04:22:46;40.26;38.37;42.03;;
66747;Laerm;53658;50.742;10.864;2024-02-16T04:25:12;40.33;38.21;46.07;;
66747;Laerm;53658;50.742;10.864;2024-02-16T04:27:38;40.30;37.88;41.82;;
66747;Laerm;53658;50.742;10.864;2024-02-16T04:30:05;40.30;37.88;41.82;;
66747;Laerm;53658;50.742;10.864;2024-02-16T04:32:31;40.34;38.21;42.03;;
66747;Laerm;53658;50.742;10.864;2024-02-16T04:34:58;40.40;38.21;42.03;;
66747;Laerm;53658;50.742;10.864;2024-02-16T04:37:25;40.41;38.37;42.09;;
66747;Laerm;53658;50.742;10.864;2024-02-16T04:39:52;40.42;38.67;41.89;;
66747;Laerm;53658;50.742;10.864;2024-02-16T04:42:17;40.44;38.21;42.03;;
66747;Laerm;53658;50.742;10.864;2024-02-16T04:44:44;40.42;37.88;42.41;;
66747;Laerm;53658;50.742;10.864;2024-02-16T04:47:10;40.38;38.67;41.96;;
66747;Laerm;53658;50.742;10.864;2024-02-16T04:49:37;40.36;38.52;41.81;;
66747;Laerm;53658;50.742;10.864;2024-02-16T04:52:03;40.33;38.05;41.75;;
66747;Laerm;53658;50.742;10.864;2024-02-16T04:54:29;40.38;38.37;41.75;;
66747;Laerm;53658;50.742;10.864;2024-02-16T04:56:55;40.43;38.05;41.89;;
66747;Laerm;53658;50.742;10.864;2024-02-16T04:59:21;40.44;38.05;42.24;;
66747;Laerm;53658;50.742;10.864;2024-02-16T05:01:47;40.42;38.05;42.29;;
66747;Laerm;53658;50.742;10.864;2024-02-16T05:04:13;40.40;38.37;41.89;;
66747;Laerm;53658;50.742;10.864;2024-02-16T05:06:43;40.42;38.21;42.29;;
66747;Laerm;53658;50.742;10.864;2024-02-16T05:09:09;40.46;38.52;42.03;;
66747;Laerm;53658;50.742;10.864;2024-02-16T05:11:35;40.44;38.52;42.30;;
66747;Laerm;53658;50.742;10.864;2024-02-16T05:14:00;40.45;38.05;41.89;;
66747;Laerm;53658;50.742;10.864;2024-02-16T05:16:28;40.44;38.21;42.16;;
66747;Laerm;53658;50.742;10.864;2024-02-16T05:18:56;40.45;38.05;41.96;;
66747;Laerm;53658;50.742;10.864;2024-02-16T05:21:22;40.39;37.70;41.94;;
66747;Laerm;53658;50.742;10.864;2024-02-16T05:23:48;40.38;38.21;42.03;;
66747;Laerm;53658;50.742;10.864;2024-02-16T05:26:14;40.38;38.21;41.82;;
66747;Laerm;53658;50.742;10.864;2024-02-16T05:28:40;40.40;38.67;42.09;;
66747;Laerm;53658;50.742;10.864;2024-02-16T05:31:17;40.40;38.37;42.09;;
66747;Laerm;53658;50.742;10.864;2024-02-16T05:33:46;40.39;38.21;42.22;;
66747;Laerm;53658;50.742;10.864;2024-02-16T05:36:12;40.45;38.52;42.03;;
66747;Laerm;53658;50.742;10.864;2024-02-16T05:38:38;40.46;38.67;41.96;;
66747;Laerm;53658;50.742;10.864;2024-02-16T05:41:09;40.45;38.37;42.03;;
66747;Laerm;53658;50.742;10.864;2024-02-16T05:43:35;40.48;38.67;42.03;;
66747;Laerm;53658;50.742;10.864;2024-02-16T05:46:01;40.46;38.67;42.16;;
66747;Laerm;53658;50.742;10.864;2024-02-16T05:48:26;40.46;38.05;41.96;;
66747;Laerm;53658;50.742;10.864;2024-02-16T05:50:59;40.45;38.67;42.09;;
66747;Laerm;53658;50.742;10.864;2024-02-16T05:53:27;40.45;38.37;42.03;;
66747;Laerm;53658;50.742;10.864;2024-02-16T05:55:53;40.44;38.52;42.09;;
66747;Laerm;53658;50.742;10.864;2024-02-16T05:58:19;40.46;38.05;42.03;;
66747;Laerm;53658;50.742;10.864;2024-02-16T06:00:45;40.44;38.05;42.16;;
66747;Laerm;53658;50.742;10.864;2024-02-16T06:03:13;40.45;38.37;42.03;;
66747;Laerm;53658;50.742;10.864;2024-02-16T06:05:39;40.45;38.37;42.03;;
66747;Laerm;53658;50.742;10.864;2024-02-16T06:08:10;40.42;38.52;42.09;;
66747;Laerm;53658;50.742;10.864;2024-02-16T06:10:36;40.41;38.37;41.82;;
66747;Laerm;53658;50.742;10.864;2024-02-16T06:13:01;40.41;38.37;42.00;;
66747;Laerm;53658;50.742;10.864;2024-02-16T06:15:27;40.39;38.52;42.03;;
66747;Laerm;53658;50.742;10.864;2024-02-16T06:17:53;40.42;38.37;42.16;;
66747;Laerm;53658;50.742;10.864;2024-02-16T06:20:19;40.40;38.37;41.89;;
66747;Laerm;53658;50.742;10.864;2024-02-16T06:22:45;40.40;38.52;42.03;;
66747;Laerm;53658;50.742;10.864;2024-02-16T06:25:11;40.45;38.52;42.09;;
66747;Laerm;53658;50.742;10.864;2024-02-16T06:27:37;40.46;38.52;41.94;;
66747;Laerm;53658;50.742;10.864;2024-02-16T06:30:03;40.44;38.52;41.96;;
66747;Laerm;53658;50.742;10.864;2024-02-16T06:32:33;40.45;38.37;42.03;;
66747;Laerm;53658;50.742;10.864;2024-02-16T06:34:59;40.48;38.21;41.89;;
66747;Laerm;53658;50.742;10.864;2024-02-16T06:37:25;40.47;38.60;41.96;;
66747;Laerm;53658;50.742;10.864;2024-02-16T06:39:50;40.48;38.47;42.29;;
66747;Laerm;53658;50.742;10.864;2024-02-16T06:42:16;40.48;38.37;42.22;;
66747;Laerm;53658;50.742;10.864;2024-02-16T06:44:42;40.49;38.21;42.03;;
66747;Laerm;53658;50.742;10.864;2024-02-16T06:47:11;40.49;38.52;42.41;;
66747;Laerm;53658;50.742;10.864;2024-02-16T06:49:37;40.45;37.88;42.09;;
66747;Laerm;53658;50.742;10.864;2024-02-16T06:52:03;40.36;38.21;42.09;;
66747;Laerm;53658;50.742;10.864;2024-02-16T06:54:30;40.36;38.37;41.82;;
66747;Laerm;53658;50.742;10.864;2024-02-16T06:56:55;40.37;38.52;41.96;;
66747;Laerm;53658;50.742;10.864;2024-02-16T06:59:21;40.42;38.52;41.89;;
66747;Laerm;53658;50.742;10.864;2024-02-16T07:01:47;40.47;38.52;41.82;;
66747;Laerm;53658;50.742;10.864;2024-02-16T07:04:13;40.44;38.67;41.82;;
66747;Laerm;53658;50.742;10.864;2024-02-16T07:06:40;40.44;38.67;41.96;;
66747;Laerm;53658;50.742;10.864;2024-02-16T07:09:06;40.43;38.52;41.96;;
66747;Laerm;53658;50.742;10.864;2024-02-16T07:11:32;40.37;38.52;42.00;;
66747;Laerm;53658;50.742;10.864;2024-02-16T07:14:03;40.42;38.05;41.82;;
66747;Laerm;53658;50.742;10.864;2024-02-16T07:16:29;40.37;38.67;42.03;;
66747;Laerm;53658;50.742;10.864;2024-02-16T07:18:56;40.37;38.37;41.89;;
66747;Laerm;53658;50.742;10.864;2024-02-16T07:21:22;40.34;38.52;41.89;;
66747;Laerm;53658;50.742;10.864;2024-02-16T07:23:48;40.32;38.21;41.82;;
66747;Laerm;53658;50.742;10.864;2024-02-16T07:26:14;40.34;38.52;41.89;;
66747;Laerm;53658;50.742;10.864;2024-02-16T07:28:40;40.39;38.52;41.75;;
66747;Laerm;53658;50.742;10.864;2024-02-16T07:31:06;40.43;38.21;41.96;;
66747;Laerm;53658;50.742;10.864;2024-02-16T07:33:32;40.39;38.21;41.96;;
66747;Laerm;53658;50.742;10.864;2024-02-16T07:35:57;40.48;38.95;41.89;;
66747;Laerm;53658;50.742;10.864;2024-02-16T07:38:23;40.53;38.67;42.03;;
66747;Laerm;53658;50.742;10.864;2024-02-16T07:40:49;40.62;38.95;42.16;;
66747;Laerm;53658;50.742;10.864;2024-02-16T07:43:16;40.74;38.81;43.14;;
66747;Laerm;53658;50.742;10.864;2024-02-16T07:45:43;40.98;39.34;42.35;;
66747;Laerm;53658;50.742;10.864;2024-02-16T07:48:09;41.02;39.46;42.35;;
66747;Laerm;53658;50.742;10.864;2024-02-16T07:50:35;40.93;39.34;42.29;;
66747;Laerm;53658;50.742;10.864;2024-02-16T07:53:01;40.90;39.08;42.22;;
66747;Laerm;53658;50.742;10.864;2024-02-16T07:55:26;41.09;39.34;42.59;;
66747;Laerm;53658;50.742;10.864;2024-02-16T07:57:52;41.11;39.46;42.47;;
66747;Laerm;53658;50.742;10.864;2024-02-16T08:00:18;41.13;39.58;43.09;;
66747;Laerm;53658;50.742;10.864;2024-02-16T08:02:45;41.11;39.34;42.59;;
66747;Laerm;53658;50.742;10.864;2024-02-16T08:05:11;41.09;39.21;42.65;;
66747;Laerm;53658;50.742;10.864;2024-02-16T11:35:58;42.91;35.94;66.34;;
66747;Laerm;53658;50.742;10.864;2024-02-16T11:38:25;39.21;35.36;47.26;;
66747;Laerm;53658;50.742;10.864;2024-02-16T11:40:58;39.26;35.04;50.06;;
66747;Laerm;53658;50.742;10.864;2024-02-16T11:43:25;41.91;35.36;60.46;;
66747;Laerm;53658;50.742;10.864;2024-02-16T11:45:52;39.29;35.86;47.24;;
66747;Laerm;53658;50.742;10.864;2024-02-16T11:48:23;42.33;35.66;60.43;;
66747;Laerm;53658;50.742;10.864;2024-02-16T11:50:59;40.39;35.66;55.55;;
66747;Laerm;53658;50.742;10.864;2024-02-16T11:53:25;39.12;35.36;44.01;;
66747;Laerm;53658;50.742;10.864;2024-02-16T11:55:51;39.20;35.36;44.76;;
66747;Laerm;53658;50.742;10.864;2024-02-16T11:58:17;39.12;35.66;43.94;;
66747;Laerm;53658;50.742;10.864;2024-02-16T12:00:48;40.93;35.04;56.31;;
66747;Laerm;53658;50.742;10.864;2024-02-16T12:03:21;40.01;35.31;48.51;;
66747;Laerm;53658;50.742;10.864;2024-02-16T12:05:58;39.29;34.31;43.99;;
66747;Laerm;53658;50.742;10.864;2024-02-16T12:08:33;39.02;35.36;41.88;;
66747;Laerm;53658;50.742;10.864;2024-02-16T12:11:00;39.00;34.69;41.38;;
66747;Laerm;53658;50.742;10.864;2024-02-16T12:13:27;39.08;34.69;44.11;;
66747;Laerm;53658;50.742;10.864;2024-02-16T12:15:53;39.96;35.66;51.81;;
66747;Laerm;53658;50.742;10.864;2024-02-16T12:18:23;39.48;35.66;51.56;;
66747;Laerm;53658;50.742;10.864;2024-02-16T12:21:06;38.99;35.66;41.38;;
66747;Laerm;53658;50.742;10.864;2024-02-16T12:23:33;39.09;34.69;43.90;;
66747;Laerm;53658;50.742;10.864;2024-02-16T12:25:59;39.47;35.66;45.83;;
66747;Laerm;53658;50.742;10.864;2024-02-16T12:28:27;39.55;35.66;48.48;;
66747;Laerm;53658;50.742;10.864;2024-02-16T12:30:55;39.05;35.36;41.89;;
66747;Laerm;53658;50.742;10.864;2024-02-16T12:33:23;39.15;35.66;41.75;;
66747;Laerm;53658;50.742;10.864;2024-02-16T12:35:50;39.06;35.66;41.68;;
66747;Laerm;53658;50.742;10.864;2024-02-16T12:38:16;39.24;35.36;43.81;;
66747;Laerm;53658;50.742;10.864;2024-02-16T12:40:43;39.04;35.66;41.22;;
66747;Laerm;53658;50.742;10.864;2024-02-16T12:43:09;39.03;35.66;41.14;;
66747;Laerm;53658;50.742;10.864;2024-02-16T12:45:37;39.04;34.69;41.30;;
66747;Laerm;53658;50.742;10.864;2024-02-16T12:48:03;39.02;35.04;41.61;;
66747;Laerm;53658;50.742;10.864;2024-02-16T12:50:30;39.02;35.66;41.53;;
66747;Laerm;53658;50.742;10.864;2024-02-16T12:52:56;38.99;35.04;41.38;;
66747;Laerm;53658;50.742;10.864;2024-02-16T12:55:23;39.03;35.94;41.26;;
66747;Laerm;53658;50.742;10.864;2024-02-16T12:57:49;39.06;35.59;41.06;;
66747;Laerm;53658;50.742;10.864;2024-02-16T13:00:17;39.06;35.94;41.68;;
66747;Laerm;53658;50.742;10.864;2024-02-16T13:02:43;39.10;35.66;41.46;;
66747;Laerm;53658;50.742;10.864;2024-02-16T13:05:09;39.08;35.66;41.46;;
66747;Laerm;53658;50.742;10.864;2024-02-16T13:07:39;39.07;35.66;41.30;;
66747;Laerm;53658;50.742;10.864;2024-02-16T13:10:08;39.07;35.04;41.68;;
66747;Laerm;53658;50.742;10.864;2024-02-16T13:12:35;39.08;35.66;41.61;;
66747;Laerm;53658;50.742;10.864;2024-02-16T13:15:03;39.06;35.36;41.68;;
66747;Laerm;53658;50.742;10.864;2024-02-16T13:17:30;39.10;35.66;41.14;;
66747;Laerm;53658;50.742;10.864;2024-02-16T13:19:56;39.14;35.36;41.68;;
66747;Laerm;53658;50.742;10.864;2024-02-16T13:22:32;39.18;35.94;41.46;;
66747;Laerm;53658;50.742;10.864;2024-02-16T13:24:57;39.31;35.94;43.54;;
66747;Laerm;53658;50.742;10.864;2024-02-16T13:27:23;39.27;35.94;41.68;;
66747;Laerm;53658;50.742;10.864;2024-02-16T13:29:49;39.24;35.94;41.89;;
66747;Laerm;53658;50.742;10.864;2024-02-16T13:32:15;39.28;35.94;42.47;;
66747;Laerm;53658;50.742;10.864;2024-02-16T13:34:41;39.30;35.94;42.22;;
66747;Laerm;53658;50.742;10.864;2024-02-16T13:37:06;39.76;35.94;52.12;;
66747;Laerm;53658;50.742;10.864;2024-02-16T13:39:32;39.60;36.20;53.00;;
66747;Laerm;53658;50.742;10.864;2024-02-16T13:41:58;40.35;35.94;54.11;;
66747;Laerm;53658;50.742;10.864;2024-02-16T13:44:25;39.38;36.20;42.22;;
66747;Laerm;53658;50.742;10.864;2024-02-16T13:46:51;39.54;36.20;44.23;;
66747;Laerm;53658;50.742;10.864;2024-02-16T13:49:16;39.52;36.45;44.23;;
66747;Laerm;53658;50.742;10.864;2024-02-16T13:51:42;39.42;36.56;41.46;;
66747;Laerm;53658;50.742;10.864;2024-02-16T13:54:08;39.45;36.20;41.61;;
66747;Laerm;53658;50.742;10.864;2024-02-16T13:56:34;39.52;36.69;42.09;;
66747;Laerm;53658;50.742;10.864;2024-02-16T13:59:02;39.92;36.45;47.10;;
66747;Laerm;53658;50.742;10.864;2024-02-16T14:01:29;39.53;36.20;42.41;;
66747;Laerm;53658;50.742;10.864;2024-02-16T14:03:55;39.63;36.20;43.14;;
66747;Laerm;53658;50.742;10.864;2024-02-16T14:06:21;39.57;36.45;41.68;;
66747;Laerm;53658;50.742;10.864;2024-02-16T14:08:47;39.60;36.69;42.16;;
66747;Laerm;53658;50.742;10.864;2024-02-16T14:11:18;39.65;36.69;41.53;;
66747;Laerm;53658;50.742;10.864;2024-02-16T14:13:44;39.69;36.91;42.03;;
66747;Laerm;53658;50.742;10.864;2024-02-16T14:16:11;39.73;36.69;41.61;;
66747;Laerm;53658;50.742;10.864;2024-02-16T14:18:37;39.76;37.12;42.09;;
66747;Laerm;53658;50.742;10.864;2024-02-16T14:21:03;39.77;36.45;41.68;;
66747;Laerm;53658;50.742;10.864;2024-02-16T14:23:30;40.02;36.91;44.76;;
66747;Laerm;53658;50.742;10.864;2024-02-16T14:25:56;39.88;36.77;42.69;;
66747;Laerm;53658;50.742;10.864;2024-02-16T14:28:22;39.88;36.69;42.53;;
66747;Laerm;53658;50.742;10.864;2024-02-16T14:30:48;39.84;37.12;42.09;;
66747;Laerm;53658;50.742;10.864;2024-02-16T14:33:15;39.89;36.45;41.96;;
66747;Laerm;53658;50.742;10.864;2024-02-16T14:35:43;39.91;37.32;42.35;;
66747;Laerm;53658;50.742;10.864;2024-02-16T14:38:09;39.89;36.91;41.68;;
66747;Laerm;53658;50.742;10.864;2024-02-16T14:40:35;39.89;37.12;41.82;;
66747;Laerm;53658;50.742;10.864;2024-02-16T14:43:01;39.92;36.45;41.75;;
66747;Laerm;53658;50.742;10.864;2024-02-16T14:45:27;40.01;36.69;42.53;;
66747;Laerm;53658;50.742;10.864;2024-02-16T14:47:53;40.14;36.91;44.90;;
66747;Laerm;53658;50.742;10.864;2024-02-16T14:50:19;40.31;37.12;51.14;;
66747;Laerm;53658;50.742;10.864;2024-02-16T14:52:45;40.01;37.70;42.88;;
66747;Laerm;53658;50.742;10.864;2024-02-16T14:55:12;40.27;37.32;44.83;;
66747;Laerm;53658;50.742;10.864;2024-02-16T14:57:42;41.44;37.52;55.04;;
66747;Laerm;53658;50.742;10.864;2024-02-16T15:00:10;40.28;37.32;44.51;;
66747;Laerm;53658;50.742;10.864;2024-02-16T15:02:37;40.23;37.32;44.03;;
66747;Laerm;53658;50.742;10.864;2024-02-16T15:05:04;40.23;37.88;43.24;;
66747;Laerm;53658;50.742;10.864;2024-02-16T15:07:30;40.97;37.88;51.97;;
66747;Laerm;53658;50.742;10.864;2024-02-16T15:09:56;41.29;37.12;52.80;;
66747;Laerm;53658;50.742;10.864;2024-02-16T15:12:23;40.31;37.70;42.47;;
66747;Laerm;53658;50.742;10.864;2024-02-16T15:14:49;40.44;37.52;44.19;;
66747;Laerm;53658;50.742;10.864;2024-02-16T15:17:16;40.47;37.12;44.65;;
66747;Laerm;53658;50.742;10.864;2024-02-16T15:19:43;40.57;38.05;45.01;;
66747;Laerm;53658;50.742;10.864;2024-02-16T15:22:09;41.78;37.52;57.94;;
66747;Laerm;53658;50.742;10.864;2024-02-16T15:24:35;40.69;37.70;50.06;;
66747;Laerm;53658;50.742;10.864;2024-02-16T15:27:01;40.51;38.18;42.47;;
66747;Laerm;53658;50.742;10.864;2024-02-16T15:29:27;40.84;38.02;48.39;;
66747;Laerm;53658;50.742;10.864;2024-02-16T15:31:53;40.63;38.05;49.94;;
66747;Laerm;53658;50.742;10.864;2024-02-16T15:34:22;40.58;38.18;42.35;;
66747;Laerm;53658;50.742;10.864;2024-02-16T15:36:48;40.62;38.21;42.22;;
66747;Laerm;53658;50.742;10.864;2024-02-16T15:39:15;40.67;38.52;42.53;;
66747;Laerm;53658;50.742;10.864;2024-02-16T15:41:41;40.68;38.21;42.22;;
66747;Laerm;53658;50.742;10.864;2024-02-16T15:44:07;40.72;38.52;42.41;;
66747;Laerm;53658;50.742;10.864;2024-02-16T15:46:34;40.76;38.52;42.22;;
66747;Laerm;53658;50.742;10.864;2024-02-16T15:49:00;40.78;38.81;42.35;;
66747;Laerm;53658;50.742;10.864;2024-02-16T15:51:25;40.81;38.67;42.41;;
66747;Laerm;53658;50.742;10.864;2024-02-16T15:53:52;40.82;38.81;42.16;;
66747;Laerm;53658;50.742;10.864;2024-02-16T15:56:19;40.85;38.67;42.41;;
66747;Laerm;53658;50.742;10.864;2024-02-16T15:58:45;40.88;38.52;42.35;;
66747;Laerm;53658;50.742;10.864;2024-02-16T16:01:11;40.89;38.67;42.59;;
66747;Laerm;53658;50.742;10.864;2024-02-16T16:03:37;40.91;38.81;42.35;;
66747;Laerm;53658;50.742;10.864;2024-02-16T16:06:04;40.92;39.21;42.53;;
66747;Laerm;53658;50.742;10.864;2024-02-16T16:08:30;40.94;39.21;42.35;;
66747;Laerm;53658;50.742;10.864;2024-02-16T16:10:56;40.97;39.08;42.71;;
66747;Laerm;53658;50.742;10.864;2024-02-16T16:13:23;40.97;38.95;42.47;;
66747;Laerm;53658;50.742;10.864;2024-02-16T16:15:49;41.15;38.95;47.93;;
66747;Laerm;53658;50.742;10.864;2024-02-16T16:18:16;41.09;39.08;46.05;;
66747;Laerm;53658;50.742;10.864;2024-02-16T16:20:42;41.46;39.21;57.29;;
66747;Laerm;53658;50.742;10.864;2024-02-16T16:23:09;41.35;39.21;50.69;;
66747;Laerm;53658;50.742;10.864;2024-02-16T16:25:35;41.02;39.34;46.84;;
66747;Laerm;53658;50.742;10.864;2024-02-16T16:28:01;41.19;38.81;46.45;;
66747;Laerm;53658;50.742;10.864;2024-02-16T16:30:27;40.99;39.21;44.69;;
66747;Laerm;53658;50.742;10.864;2024-02-16T16:32:52;40.98;39.21;45.57;;
66747;Laerm;53658;50.742;10.864;2024-02-16T16:35:18;40.96;39.21;48.00;;
66747;Laerm;53658;50.742;10.864;2024-02-16T16:37:44;40.97;39.08;44.23;;
66747;Laerm;53658;50.742;10.864;2024-02-16T16:40:10;41.12;39.21;49.37;;
66747;Laerm;53658;50.742;10.864;2024-02-16T16:42:36;41.19;39.21;51.01;;
66747;Laerm;53658;50.742;10.864;2024-02-16T16:45:03;40.96;39.21;44.94;;
66747;Laerm;53658;50.742;10.864;2024-02-16T16:47:29;40.96;39.08;45.11;;
66747;Laerm;53658;50.742;10.864;2024-02-16T16:49:55;40.98;39.21;44.03;;
66747;Laerm;53658;50.742;10.864;2024-02-16T16:52:20;41.02;39.21;52.12;;
66747;Laerm;53658;50.742;10.864;2024-02-16T16:54:46;40.92;39.34;42.29;;
66747;Laerm;53658;50.742;10.864;2024-02-16T16:57:12;40.88;38.95;42.42;;